sensor_id;sensor_type;location;lat;lon;timestamp;P1;durP1;ratioP1;P2;durP2;ratioP2
78004;SDS011;67209;51.698;-0.292;2023-06-22T00:01:51;7.43;;;4.78;;
78004;SDS011;67209;51.698;-0.292;2023-06-22T00:04:17;6.45;;;4.05;;
78004;SDS011;67209;51.698;-0.292;2023-06-22T00:06:43;5.90;;;4.10;;
78004;SDS011;67209;51.698;-0.292;2023-06-22T00:09:09;5.13;;;3.88;;
78004;SDS011;67209;51.698;-0.292;2023-06-22T00:11:36;6.88;;;3.58;;
78004;SDS011;67209;51.698;-0.292;2023-06-22T00:14:02;7.80;;;4.22;;
78004;SDS011;67209;51.698;-0.292;2023-06-22T00:16:28;5.85;;;4.03;;
78004;SDS011;67209;51.698;-0.292;2023-06-22T00:18:54;8.25;;;4.28;;
78004;SDS011;67209;51.698;-0.292;2023-06-22T00:21:21;6.70;;;4.28;;
78004;SDS011;67209;51.698;-0.292;2023-06-22T00:23:46;9.02;;;3.70;;
78004;SDS011;67209;51.698;-0.292;2023-06-22T00:26:13;8.05;;;4.25;;
78004;SDS011;67209;51.698;-0.292;2023-06-22T00:28:39;6.60;;;3.80;;
78004;SDS011;67209;51.698;-0.292;2023-06-22T00:31:05;8.13;;;4.45;;
78004;SDS011;67209;51.698;-0.292;2023-06-22T00:33:31;8.15;;;4.05;;
78004;SDS011;67209;51.698;-0.292;2023-06-22T00:35:57;5.60;;;3.88;;
78004;SDS011;67209;51.698;-0.292;2023-06-22T00:38:23;7.18;;;4.50;;
78004;SDS011;67209;51.698;-0.292;2023-06-22T00:40:49;7.68;;;4.47;;
78004;SDS011;67209;51.698;-0.292;2023-06-22T00:43:15;7.05;;;3.92;;
78004;SDS011;67209;51.698;-0.292;2023-06-22T00:45:41;7.38;;;3.45;;
78004;SDS011;67209;51.698;-0.292;2023-06-22T00:48:07;6.05;;;4.55;;
78004;SDS011;67209;51.698;-0.292;2023-06-22T00:50:33;8.77;;;4.55;;
78004;SDS011;67209;51.698;-0.292;2023-06-22T00:53:03;6.32;;;3.80;;
78004;SDS011;67209;51.698;-0.292;2023-06-22T00:55:33;7.60;;;4.38;;
78004;SDS011;67209;51.698;-0.292;2023-06-22T00:58:00;7.72;;;4.10;;
78004;SDS011;67209;51.698;-0.292;2023-06-22T01:00:27;6.22;;;4.30;;
78004;SDS011;67209;51.698;-0.292;2023-06-22T01:02:53;7.47;;;4.30;;
78004;SDS011;67209;51.698;-0.292;2023-06-22T01:05:19;6.28;;;4.00;;
78004;SDS011;67209;51.698;-0.292;2023-06-22T01:10:16;6.35;;;4.20;;
78004;SDS011;67209;51.698;-0.292;2023-06-22T01:12:45;7.07;;;4.18;;
78004;SDS011;67209;51.698;-0.292;2023-06-22T01:15:16;7.20;;;4.35;;
78004;SDS011;67209;51.698;-0.292;2023-06-22T01:17:44;6.55;;;4.68;;
78004;SDS011;67209;51.698;-0.292;2023-06-22T01:20:11;7.85;;;4.65;;
78004;SDS011;67209;51.698;-0.292;2023-06-22T01:22:47;6.82;;;4.20;;
78004;SDS011;67209;51.698;-0.292;2023-06-22T01:25:21;7.95;;;4.25;;
78004;SDS011;67209;51.698;-0.292;2023-06-22T01:30:16;6.75;;;4.32;;
78004;SDS011;67209;51.698;-0.292;2023-06-22T01:32:43;8.93;;;4.90;;
78004;SDS011;67209;51.698;-0.292;2023-06-22T01:35:09;6.15;;;4.28;;
78004;SDS011;67209;51.698;-0.292;2023-06-22T01:37:36;8.38;;;4.70;;
78004;SDS011;67209;51.698;-0.292;2023-06-22T01:40:02;6.18;;;4.10;;
78004;SDS011;67209;51.698;-0.292;2023-06-22T01:42:30;11.00;;;4.85;;
78004;SDS011;67209;51.698;-0.292;2023-06-22T01:44:57;11.07;;;4.53;;
78004;SDS011;67209;51.698;-0.292;2023-06-22T01:47:24;8.43;;;5.15;;
78004;SDS011;67209;51.698;-0.292;2023-06-22T01:49:50;7.03;;;4.55;;
78004;SDS011;67209;51.698;-0.292;2023-06-22T01:52:17;7.57;;;4.40;;
78004;SDS011;67209;51.698;-0.292;2023-06-22T01:54:43;6.88;;;4.40;;
78004;SDS011;67209;51.698;-0.292;2023-06-22T01:57:09;6.03;;;4.25;;
78004;SDS011;67209;51.698;-0.292;2023-06-22T01:59:37;6.20;;;4.97;;
78004;SDS011;67209;51.698;-0.292;2023-06-22T02:02:09;7.38;;;4.43;;
78004;SDS011;67209;51.698;-0.292;2023-06-22T02:04:51;6.18;;;4.55;;
78004;SDS011;67209;51.698;-0.292;2023-06-22T02:07:18;5.85;;;3.78;;
78004;SDS011;67209;51.698;-0.292;2023-06-22T02:09:46;9.15;;;5.00;;
78004;SDS011;67209;51.698;-0.292;2023-06-22T02:12:16;8.75;;;4.72;;
78004;SDS011;67209;51.698;-0.292;2023-06-22T02:14:43;8.13;;;4.60;;
78004;SDS011;67209;51.698;-0.292;2023-06-22T02:17:09;6.75;;;4.55;;
78004;SDS011;67209;51.698;-0.292;2023-06-22T02:19:38;7.32;;;5.03;;
78004;SDS011;67209;51.698;-0.292;2023-06-22T02:22:06;7.13;;;4.07;;
78004;SDS011;67209;51.698;-0.292;2023-06-22T02:24:32;7.32;;;4.78;;
78004;SDS011;67209;51.698;-0.292;2023-06-22T02:26:59;12.43;;;5.03;;
78004;SDS011;67209;51.698;-0.292;2023-06-22T02:29:25;9.20;;;4.97;;
78004;SDS011;67209;51.698;-0.292;2023-06-22T02:31:54;8.20;;;5.18;;
78004;SDS011;67209;51.698;-0.292;2023-06-22T02:34:21;12.05;;;5.45;;
78004;SDS011;67209;51.698;-0.292;2023-06-22T02:36:48;7.80;;;5.15;;
78004;SDS011;67209;51.698;-0.292;2023-06-22T02:39:20;6.78;;;4.65;;
78004;SDS011;67209;51.698;-0.292;2023-06-22T02:41:47;7.88;;;4.65;;
78004;SDS011;67209;51.698;-0.292;2023-06-22T02:44:13;7.50;;;5.00;;
78004;SDS011;67209;51.698;-0.292;2023-06-22T02:46:39;7.93;;;4.57;;
78004;SDS011;67209;51.698;-0.292;2023-06-22T02:49:05;8.82;;;4.80;;
78004;SDS011;67209;51.698;-0.292;2023-06-22T02:51:33;8.93;;;4.68;;
78004;SDS011;67209;51.698;-0.292;2023-06-22T02:53:59;7.75;;;4.57;;
78004;SDS011;67209;51.698;-0.292;2023-06-22T02:56:25;8.20;;;5.15;;
78004;SDS011;67209;51.698;-0.292;2023-06-22T02:58:51;7.38;;;5.00;;
78004;SDS011;67209;51.698;-0.292;2023-06-22T03:01:17;9.00;;;5.15;;
78004;SDS011;67209;51.698;-0.292;2023-06-22T03:03:49;8.05;;;5.40;;
78004;SDS011;67209;51.698;-0.292;2023-06-22T03:06:15;9.68;;;4.95;;
78004;SDS011;67209;51.698;-0.292;2023-06-22T03:08:41;8.60;;;5.50;;
78004;SDS011;67209;51.698;-0.292;2023-06-22T03:11:07;9.98;;;5.47;;
78004;SDS011;67209;51.698;-0.292;2023-06-22T03:13:33;7.30;;;4.53;;
78004;SDS011;67209;51.698;-0.292;2023-06-22T03:15:59;8.77;;;4.78;;
78004;SDS011;67209;51.698;-0.292;2023-06-22T03:18:27;8.45;;;4.95;;
78004;SDS011;67209;51.698;-0.292;2023-06-22T03:20:53;8.68;;;5.25;;
78004;SDS011;67209;51.698;-0.292;2023-06-22T03:23:19;8.75;;;4.80;;
78004;SDS011;67209;51.698;-0.292;2023-06-22T03:25:45;9.98;;;4.97;;
78004;SDS011;67209;51.698;-0.292;2023-06-22T03:28:11;10.77;;;4.25;;
78004;SDS011;67209;51.698;-0.292;2023-06-22T03:30:37;8.75;;;5.25;;
78004;SDS011;67209;51.698;-0.292;2023-06-22T03:33:03;9.20;;;5.00;;
78004;SDS011;67209;51.698;-0.292;2023-06-22T03:35:30;9.63;;;4.88;;
78004;SDS011;67209;51.698;-0.292;2023-06-22T03:37:56;8.48;;;5.05;;
78004;SDS011;67209;51.698;-0.292;2023-06-22T03:40:22;9.20;;;4.95;;
78004;SDS011;67209;51.698;-0.292;2023-06-22T03:42:48;9.23;;;5.05;;
78004;SDS011;67209;51.698;-0.292;2023-06-22T03:45:14;8.50;;;5.70;;
78004;SDS011;67209;51.698;-0.292;2023-06-22T03:47:40;10.70;;;5.50;;
78004;SDS011;67209;51.698;-0.292;2023-06-22T03:50:07;9.07;;;5.40;;
78004;SDS011;67209;51.698;-0.292;2023-06-22T03:52:33;8.52;;;5.43;;
78004;SDS011;67209;51.698;-0.292;2023-06-22T03:54:59;9.63;;;5.75;;
78004;SDS011;67209;51.698;-0.292;2023-06-22T03:57:25;9.07;;;5.32;;
78004;SDS011;67209;51.698;-0.292;2023-06-22T03:59:51;7.82;;;4.95;;
78004;SDS011;67209;51.698;-0.292;2023-06-22T04:02:17;7.35;;;5.20;;
78004;SDS011;67209;51.698;-0.292;2023-06-22T04:04:43;9.35;;;5.32;;
78004;SDS011;67209;51.698;-0.292;2023-06-22T04:07:09;10.60;;;4.72;;
78004;SDS011;67209;51.698;-0.292;2023-06-22T04:09:35;10.48;;;5.18;;
78004;SDS011;67209;51.698;-0.292;2023-06-22T04:12:01;8.32;;;5.15;;
78004;SDS011;67209;51.698;-0.292;2023-06-22T04:14:27;8.68;;;4.80;;
78004;SDS011;67209;51.698;-0.292;2023-06-22T04:16:53;11.13;;;5.63;;
78004;SDS011;67209;51.698;-0.292;2023-06-22T04:19:20;10.60;;;5.25;;
78004;SDS011;67209;51.698;-0.292;2023-06-22T04:21:46;8.25;;;4.70;;
78004;SDS011;67209;51.698;-0.292;2023-06-22T04:24:13;8.60;;;5.35;;
78004;SDS011;67209;51.698;-0.292;2023-06-22T04:26:39;7.70;;;5.57;;
78004;SDS011;67209;51.698;-0.292;2023-06-22T04:29:07;7.45;;;4.80;;
78004;SDS011;67209;51.698;-0.292;2023-06-22T04:31:36;8.13;;;4.90;;
78004;SDS011;67209;51.698;-0.292;2023-06-22T04:34:02;12.93;;;5.70;;
78004;SDS011;67209;51.698;-0.292;2023-06-22T04:36:41;9.07;;;4.80;;
78004;SDS011;67209;51.698;-0.292;2023-06-22T04:39:07;8.88;;;5.03;;
78004;SDS011;67209;51.698;-0.292;2023-06-22T04:41:35;11.43;;;4.70;;
78004;SDS011;67209;51.698;-0.292;2023-06-22T04:44:14;7.15;;;4.65;;
78004;SDS011;67209;51.698;-0.292;2023-06-22T04:46:48;8.32;;;4.97;;
78004;SDS011;67209;51.698;-0.292;2023-06-22T04:49:19;9.45;;;4.88;;
78004;SDS011;67209;51.698;-0.292;2023-06-22T04:51:45;7.85;;;4.80;;
78004;SDS011;67209;51.698;-0.292;2023-06-22T04:54:11;7.72;;;4.65;;
78004;SDS011;67209;51.698;-0.292;2023-06-22T04:56:37;7.72;;;4.90;;
78004;SDS011;67209;51.698;-0.292;2023-06-22T04:59:05;8.30;;;5.53;;
78004;SDS011;67209;51.698;-0.292;2023-06-22T05:01:31;8.93;;;5.40;;
78004;SDS011;67209;51.698;-0.292;2023-06-22T05:03:59;7.97;;;5.15;;
78004;SDS011;67209;51.698;-0.292;2023-06-22T05:06:26;7.85;;;4.60;;
78004;SDS011;67209;51.698;-0.292;2023-06-22T05:08:55;8.85;;;4.63;;
78004;SDS011;67209;51.698;-0.292;2023-06-22T05:11:27;7.65;;;5.68;;
78004;SDS011;67209;51.698;-0.292;2023-06-22T05:13:54;10.30;;;5.20;;
78004;SDS011;67209;51.698;-0.292;2023-06-22T05:16:20;8.20;;;4.47;;
78004;SDS011;67209;51.698;-0.292;2023-06-22T05:18:50;8.27;;;4.95;;
78004;SDS011;67209;51.698;-0.292;2023-06-22T05:21:17;9.52;;;4.85;;
78004;SDS011;67209;51.698;-0.292;2023-06-22T05:23:44;10.40;;;5.38;;
78004;SDS011;67209;51.698;-0.292;2023-06-22T05:26:10;10.93;;;6.18;;
78004;SDS011;67209;51.698;-0.292;2023-06-22T05:28:36;7.50;;;5.03;;
78004;SDS011;67209;51.698;-0.292;2023-06-22T05:31:02;7.78;;;5.05;;
78004;SDS011;67209;51.698;-0.292;2023-06-22T05:33:28;9.75;;;5.05;;
78004;SDS011;67209;51.698;-0.292;2023-06-22T05:35:54;8.48;;;5.63;;
78004;SDS011;67209;51.698;-0.292;2023-06-22T05:38:20;9.98;;;5.70;;
78004;SDS011;67209;51.698;-0.292;2023-06-22T05:40:46;9.68;;;5.70;;
78004;SDS011;67209;51.698;-0.292;2023-06-22T05:43:13;7.95;;;5.55;;
78004;SDS011;67209;51.698;-0.292;2023-06-22T05:45:39;10.02;;;5.40;;
78004;SDS011;67209;51.698;-0.292;2023-06-22T05:48:05;7.75;;;4.70;;
78004;SDS011;67209;51.698;-0.292;2023-06-22T05:50:31;8.82;;;5.57;;
78004;SDS011;67209;51.698;-0.292;2023-06-22T05:52:57;9.05;;;5.57;;
78004;SDS011;67209;51.698;-0.292;2023-06-22T05:55:23;6.25;;;4.40;;
78004;SDS011;67209;51.698;-0.292;2023-06-22T05:57:49;7.72;;;5.18;;
78004;SDS011;67209;51.698;-0.292;2023-06-22T06:00:15;8.23;;;4.43;;
78004;SDS011;67209;51.698;-0.292;2023-06-22T06:02:41;6.90;;;5.03;;
78004;SDS011;67209;51.698;-0.292;2023-06-22T06:05:11;8.98;;;5.25;;
78004;SDS011;67209;51.698;-0.292;2023-06-22T06:07:41;7.40;;;5.45;;
78004;SDS011;67209;51.698;-0.292;2023-06-22T06:10:08;10.30;;;5.43;;
78004;SDS011;67209;51.698;-0.292;2023-06-22T06:12:34;11.57;;;5.63;;
78004;SDS011;67209;51.698;-0.292;2023-06-22T06:15:00;7.93;;;5.45;;
78004;SDS011;67209;51.698;-0.292;2023-06-22T06:17:27;7.07;;;5.35;;
78004;SDS011;67209;51.698;-0.292;2023-06-22T06:19:53;7.00;;;5.35;;
78004;SDS011;67209;51.698;-0.292;2023-06-22T06:22:19;7.88;;;5.55;;
78004;SDS011;67209;51.698;-0.292;2023-06-22T06:24:48;12.98;;;5.55;;
78004;SDS011;67209;51.698;-0.292;2023-06-22T06:27:17;7.75;;;5.32;;
78004;SDS011;67209;51.698;-0.292;2023-06-22T06:29:43;11.57;;;5.95;;
78004;SDS011;67209;51.698;-0.292;2023-06-22T06:32:13;8.98;;;5.45;;
78004;SDS011;67209;51.698;-0.292;2023-06-22T06:34:39;9.73;;;4.85;;
78004;SDS011;67209;51.698;-0.292;2023-06-22T06:37:05;12.55;;;6.07;;
78004;SDS011;67209;51.698;-0.292;2023-06-22T06:39:31;11.05;;;5.70;;
78004;SDS011;67209;51.698;-0.292;2023-06-22T06:42:00;11.50;;;6.00;;
78004;SDS011;67209;51.698;-0.292;2023-06-22T06:44:27;11.25;;;5.85;;
78004;SDS011;67209;51.698;-0.292;2023-06-22T06:46:53;11.85;;;6.28;;
78004;SDS011;67209;51.698;-0.292;2023-06-22T06:49:19;14.40;;;5.72;;
78004;SDS011;67209;51.698;-0.292;2023-06-22T06:51:45;8.85;;;5.63;;
78004;SDS011;67209;51.698;-0.292;2023-06-22T06:54:11;12.27;;;5.68;;
78004;SDS011;67209;51.698;-0.292;2023-06-22T06:56:37;15.52;;;5.07;;
78004;SDS011;67209;51.698;-0.292;2023-06-22T06:59:03;14.43;;;6.07;;
78004;SDS011;67209;51.698;-0.292;2023-06-22T07:01:29;14.25;;;5.85;;
78004;SDS011;67209;51.698;-0.292;2023-06-22T07:03:58;11.65;;;5.70;;
78004;SDS011;67209;51.698;-0.292;2023-06-22T07:06:25;17.00;;;5.72;;
78004;SDS011;67209;51.698;-0.292;2023-06-22T07:08:54;9.85;;;5.38;;
78004;SDS011;67209;51.698;-0.292;2023-06-22T07:11:20;13.82;;;6.45;;
78004;SDS011;67209;51.698;-0.292;2023-06-22T07:13:46;12.07;;;5.70;;
78004;SDS011;67209;51.698;-0.292;2023-06-22T07:16:12;9.27;;;5.10;;
78004;SDS011;67209;51.698;-0.292;2023-06-22T07:18:39;10.40;;;5.80;;
78004;SDS011;67209;51.698;-0.292;2023-06-22T07:21:05;9.18;;;4.75;;
78004;SDS011;67209;51.698;-0.292;2023-06-22T07:23:32;9.85;;;5.40;;
78004;SDS011;67209;51.698;-0.292;2023-06-22T07:25:58;12.73;;;5.07;;
78004;SDS011;67209;51.698;-0.292;2023-06-22T07:28:27;11.32;;;5.70;;
78004;SDS011;67209;51.698;-0.292;2023-06-22T07:30:54;11.82;;;6.00;;
78004;SDS011;67209;51.698;-0.292;2023-06-22T07:33:20;10.52;;;6.40;;
78004;SDS011;67209;51.698;-0.292;2023-06-22T07:35:46;10.50;;;5.70;;
78004;SDS011;67209;51.698;-0.292;2023-06-22T07:38:13;9.23;;;5.18;;
78004;SDS011;67209;51.698;-0.292;2023-06-22T07:40:40;10.02;;;5.38;;
78004;SDS011;67209;51.698;-0.292;2023-06-22T07:43:07;7.00;;;4.50;;
78004;SDS011;67209;51.698;-0.292;2023-06-22T07:45:33;11.18;;;4.97;;
78004;SDS011;67209;51.698;-0.292;2023-06-22T07:48:00;10.32;;;5.18;;
78004;SDS011;67209;51.698;-0.292;2023-06-22T07:50:26;8.57;;;5.03;;
78004;SDS011;67209;51.698;-0.292;2023-06-22T07:52:52;8.90;;;4.75;;
78004;SDS011;67209;51.698;-0.292;2023-06-22T07:55:18;10.75;;;4.95;;
78004;SDS011;67209;51.698;-0.292;2023-06-22T07:57:46;7.32;;;4.38;;
78004;SDS011;67209;51.698;-0.292;2023-06-22T08:00:12;6.50;;;4.28;;
78004;SDS011;67209;51.698;-0.292;2023-06-22T08:02:40;8.32;;;5.20;;
78004;SDS011;67209;51.698;-0.292;2023-06-22T08:05:06;8.98;;;5.35;;
78004;SDS011;67209;51.698;-0.292;2023-06-22T08:07:33;8.45;;;4.97;;
78004;SDS011;67209;51.698;-0.292;2023-06-22T08:10:00;7.85;;;4.95;;
78004;SDS011;67209;51.698;-0.292;2023-06-22T08:12:27;8.75;;;5.13;;
78004;SDS011;67209;51.698;-0.292;2023-06-22T08:14:53;8.27;;;4.75;;
78004;SDS011;67209;51.698;-0.292;2023-06-22T08:17:19;7.78;;;4.57;;
78004;SDS011;67209;51.698;-0.292;2023-06-22T08:19:45;8.00;;;5.05;;
78004;SDS011;67209;51.698;-0.292;2023-06-22T08:22:11;9.05;;;4.85;;
78004;SDS011;67209;51.698;-0.292;2023-06-22T08:24:37;8.55;;;4.93;;
78004;SDS011;67209;51.698;-0.292;2023-06-22T08:27:04;10.32;;;5.32;;
78004;SDS011;67209;51.698;-0.292;2023-06-22T08:32:00;5.63;;;4.40;;
78004;SDS011;67209;51.698;-0.292;2023-06-22T08:34:26;5.07;;;3.92;;
78004;SDS011;67209;51.698;-0.292;2023-06-22T08:36:53;6.25;;;4.25;;
78004;SDS011;67209;51.698;-0.292;2023-06-22T08:39:19;6.93;;;4.25;;
78004;SDS011;67209;51.698;-0.292;2023-06-22T08:41:46;6.28;;;4.50;;
78004;SDS011;67209;51.698;-0.292;2023-06-22T08:44:12;6.60;;;4.72;;
78004;SDS011;67209;51.698;-0.292;2023-06-22T08:46:38;7.35;;;4.20;;
78004;SDS011;67209;51.698;-0.292;2023-06-22T08:49:06;6.88;;;3.70;;
78004;SDS011;67209;51.698;-0.292;2023-06-22T08:51:32;7.38;;;4.25;;
78004;SDS011;67209;51.698;-0.292;2023-06-22T08:53:58;7.10;;;4.07;;
78004;SDS011;67209;51.698;-0.292;2023-06-22T08:56:24;5.55;;;3.70;;
78004;SDS011;67209;51.698;-0.292;2023-06-22T08:58:50;4.65;;;3.72;;
78004;SDS011;67209;51.698;-0.292;2023-06-22T09:01:16;4.63;;;3.50;;
78004;SDS011;67209;51.698;-0.292;2023-06-22T09:03:42;6.15;;;4.00;;
78004;SDS011;67209;51.698;-0.292;2023-06-22T09:06:08;5.80;;;3.88;;
78004;SDS011;67209;51.698;-0.292;2023-06-22T09:08:35;5.72;;;3.75;;
78004;SDS011;67209;51.698;-0.292;2023-06-22T09:11:01;6.32;;;4.03;;
78004;SDS011;67209;51.698;-0.292;2023-06-22T09:13:29;8.55;;;3.95;;
78004;SDS011;67209;51.698;-0.292;2023-06-22T09:15:55;7.65;;;4.00;;
78004;SDS011;67209;51.698;-0.292;2023-06-22T09:18:21;5.85;;;4.40;;
78004;SDS011;67209;51.698;-0.292;2023-06-22T09:20:48;4.97;;;4.07;;
78004;SDS011;67209;51.698;-0.292;2023-06-22T09:23:14;6.03;;;4.00;;
78004;SDS011;67209;51.698;-0.292;2023-06-22T09:25:40;8.32;;;4.20;;
78004;SDS011;67209;51.698;-0.292;2023-06-22T09:28:07;7.55;;;3.67;;
78004;SDS011;67209;51.698;-0.292;2023-06-22T09:30:33;6.30;;;3.90;;
78004;SDS011;67209;51.698;-0.292;2023-06-22T09:32:59;5.05;;;3.75;;
78004;SDS011;67209;51.698;-0.292;2023-06-22T09:35:26;6.15;;;3.75;;
78004;SDS011;67209;51.698;-0.292;2023-06-22T09:37:52;7.20;;;3.70;;
78004;SDS011;67209;51.698;-0.292;2023-06-22T09:40:18;7.05;;;3.92;;
78004;SDS011;67209;51.698;-0.292;2023-06-22T09:42:45;5.82;;;3.47;;
78004;SDS011;67209;51.698;-0.292;2023-06-22T09:45:12;5.28;;;3.28;;
78004;SDS011;67209;51.698;-0.292;2023-06-22T09:47:38;4.75;;;3.10;;
78004;SDS011;67209;51.698;-0.292;2023-06-22T09:50:05;5.90;;;3.70;;
78004;SDS011;67209;51.698;-0.292;2023-06-22T09:52:31;5.05;;;3.05;;
78004;SDS011;67209;51.698;-0.292;2023-06-22T09:54:57;5.45;;;3.53;;
78004;SDS011;67209;51.698;-0.292;2023-06-22T09:57:23;4.70;;;3.65;;
78004;SDS011;67209;51.698;-0.292;2023-06-22T09:59:49;7.07;;;3.50;;
78004;SDS011;67209;51.698;-0.292;2023-06-22T10:02:15;6.00;;;4.05;;
78004;SDS011;67209;51.698;-0.292;2023-06-22T10:04:42;5.53;;;3.80;;
78004;SDS011;67209;51.698;-0.292;2023-06-22T10:07:08;6.43;;;3.03;;
78004;SDS011;67209;51.698;-0.292;2023-06-22T10:09:34;5.03;;;3.15;;
78004;SDS011;67209;51.698;-0.292;2023-06-22T10:12:00;4.60;;;3.47;;
78004;SDS011;67209;51.698;-0.292;2023-06-22T10:14:26;3.83;;;3.28;;
78004;SDS011;67209;51.698;-0.292;2023-06-22T10:16:54;3.95;;;3.55;;
78004;SDS011;67209;51.698;-0.292;2023-06-22T10:19:20;3.72;;;3.08;;
78004;SDS011;67209;51.698;-0.292;2023-06-22T10:21:46;4.20;;;2.85;;
78004;SDS011;67209;51.698;-0.292;2023-06-22T10:24:12;4.18;;;2.83;;
78004;SDS011;67209;51.698;-0.292;2023-06-22T10:26:38;5.32;;;3.05;;
78004;SDS011;67209;51.698;-0.292;2023-06-22T10:29:04;4.25;;;3.10;;
78004;SDS011;67209;51.698;-0.292;2023-06-22T10:31:30;4.88;;;3.22;;
78004;SDS011;67209;51.698;-0.292;2023-06-22T10:33:59;3.97;;;3.10;;
78004;SDS011;67209;51.698;-0.292;2023-06-22T10:36:25;3.53;;;2.67;;
78004;SDS011;67209;51.698;-0.292;2023-06-22T10:38:51;3.20;;;2.55;;
78004;SDS011;67209;51.698;-0.292;2023-06-22T10:41:18;3.78;;;2.67;;
78004;SDS011;67209;51.698;-0.292;2023-06-22T10:43:44;4.70;;;2.80;;
78004;SDS011;67209;51.698;-0.292;2023-06-22T10:46:10;3.90;;;2.63;;
78004;SDS011;67209;51.698;-0.292;2023-06-22T10:48:36;5.53;;;3.50;;
78004;SDS011;67209;51.698;-0.292;2023-06-22T10:51:02;5.75;;;2.70;;
78004;SDS011;67209;51.698;-0.292;2023-06-22T10:53:28;3.10;;;2.28;;
78004;SDS011;67209;51.698;-0.292;2023-06-22T10:55:54;4.30;;;2.33;;
78004;SDS011;67209;51.698;-0.292;2023-06-22T10:58:20;4.07;;;2.35;;
78004;SDS011;67209;51.698;-0.292;2023-06-22T11:00:46;4.25;;;2.13;;
78004;SDS011;67209;51.698;-0.292;2023-06-22T11:03:12;3.13;;;2.53;;
78004;SDS011;67209;51.698;-0.292;2023-06-22T11:05:39;4.90;;;3.03;;
78004;SDS011;67209;51.698;-0.292;2023-06-22T11:08:05;4.53;;;2.88;;
78004;SDS011;67209;51.698;-0.292;2023-06-22T11:10:31;4.75;;;2.92;;
78004;SDS011;67209;51.698;-0.292;2023-06-22T11:12:57;3.53;;;2.60;;
78004;SDS011;67209;51.698;-0.292;2023-06-22T11:15:23;3.75;;;2.50;;
78004;SDS011;67209;51.698;-0.292;2023-06-22T11:17:49;3.85;;;2.72;;
78004;SDS011;67209;51.698;-0.292;2023-06-22T11:20:15;3.33;;;2.67;;
78004;SDS011;67209;51.698;-0.292;2023-06-22T11:22:41;3.15;;;2.55;;
78004;SDS011;67209;51.698;-0.292;2023-06-22T11:25:08;6.82;;;2.60;;
78004;SDS011;67209;51.698;-0.292;2023-06-22T11:27:34;3.30;;;2.85;;
78004;SDS011;67209;51.698;-0.292;2023-06-22T11:30:00;4.88;;;2.65;;
78004;SDS011;67209;51.698;-0.292;2023-06-22T11:32:26;2.88;;;2.58;;
78004;SDS011;67209;51.698;-0.292;2023-06-22T11:34:52;2.67;;;2.22;;
78004;SDS011;67209;51.698;-0.292;2023-06-22T11:37:18;5.93;;;2.63;;
78004;SDS011;67209;51.698;-0.292;2023-06-22T11:39:44;3.30;;;2.30;;
78004;SDS011;67209;51.698;-0.292;2023-06-22T11:42:10;3.22;;;2.47;;
78004;SDS011;67209;51.698;-0.292;2023-06-22T11:44:36;4.15;;;2.72;;
78004;SDS011;67209;51.698;-0.292;2023-06-22T11:47:03;3.40;;;2.70;;
78004;SDS011;67209;51.698;-0.292;2023-06-22T11:49:32;3.72;;;2.05;;
78004;SDS011;67209;51.698;-0.292;2023-06-22T11:51:58;2.95;;;2.42;;
78004;SDS011;67209;51.698;-0.292;2023-06-22T11:54:24;5.63;;;2.65;;
78004;SDS011;67209;51.698;-0.292;2023-06-22T11:56:50;2.95;;;2.35;;
78004;SDS011;67209;51.698;-0.292;2023-06-22T11:59:16;3.97;;;2.40;;
78004;SDS011;67209;51.698;-0.292;2023-06-22T12:01:42;4.22;;;2.80;;
78004;SDS011;67209;51.698;-0.292;2023-06-22T12:04:08;5.03;;;2.65;;
78004;SDS011;67209;51.698;-0.292;2023-06-22T12:06:37;3.03;;;2.28;;
78004;SDS011;67209;51.698;-0.292;2023-06-22T12:09:03;4.13;;;2.97;;
78004;SDS011;67209;51.698;-0.292;2023-06-22T12:11:30;3.67;;;2.83;;
78004;SDS011;67209;51.698;-0.292;2023-06-22T12:13:56;2.95;;;2.50;;
78004;SDS011;67209;51.698;-0.292;2023-06-22T12:16:26;4.28;;;2.70;;
78004;SDS011;67209;51.698;-0.292;2023-06-22T12:18:52;3.72;;;2.20;;
78004;SDS011;67209;51.698;-0.292;2023-06-22T12:21:18;5.03;;;2.70;;
78004;SDS011;67209;51.698;-0.292;2023-06-22T12:23:45;2.97;;;2.50;;
78004;SDS011;67209;51.698;-0.292;2023-06-22T12:26:11;3.20;;;2.42;;
78004;SDS011;67209;51.698;-0.292;2023-06-22T12:28:37;3.92;;;2.47;;
78004;SDS011;67209;51.698;-0.292;2023-06-22T12:31:03;3.65;;;2.55;;
78004;SDS011;67209;51.698;-0.292;2023-06-22T12:33:29;4.32;;;3.00;;
78004;SDS011;67209;51.698;-0.292;2023-06-22T12:35:55;3.33;;;2.80;;
78004;SDS011;67209;51.698;-0.292;2023-06-22T12:38:21;2.83;;;2.50;;
78004;SDS011;67209;51.698;-0.292;2023-06-22T12:40:49;3.70;;;2.05;;
78004;SDS011;67209;51.698;-0.292;2023-06-22T12:43:15;5.78;;;2.90;;
78004;SDS011;67209;51.698;-0.292;2023-06-22T12:45:41;4.95;;;2.67;;
78004;SDS011;67209;51.698;-0.292;2023-06-22T12:48:07;3.40;;;2.70;;
78004;SDS011;67209;51.698;-0.292;2023-06-22T12:50:34;3.90;;;2.40;;
78004;SDS011;67209;51.698;-0.292;2023-06-22T12:53:00;3.67;;;2.47;;
78004;SDS011;67209;51.698;-0.292;2023-06-22T12:55:28;4.40;;;2.65;;
78004;SDS011;67209;51.698;-0.292;2023-06-22T12:57:54;3.08;;;2.40;;
78004;SDS011;67209;51.698;-0.292;2023-06-22T13:00:20;4.93;;;2.88;;
78004;SDS011;67209;51.698;-0.292;2023-06-22T13:02:46;3.28;;;2.50;;
78004;SDS011;67209;51.698;-0.292;2023-06-22T13:05:12;4.15;;;2.60;;
78004;SDS011;67209;51.698;-0.292;2023-06-22T13:07:38;5.25;;;2.75;;
78004;SDS011;67209;51.698;-0.292;2023-06-22T13:10:04;4.28;;;2.40;;
78004;SDS011;67209;51.698;-0.292;2023-06-22T13:12:30;6.03;;;2.50;;
78004;SDS011;67209;51.698;-0.292;2023-06-22T13:14:59;3.30;;;2.75;;
78004;SDS011;67209;51.698;-0.292;2023-06-22T13:17:25;4.22;;;2.85;;
78004;SDS011;67209;51.698;-0.292;2023-06-22T13:19:51;3.45;;;2.70;;
78004;SDS011;67209;51.698;-0.292;2023-06-22T13:22:28;3.50;;;2.88;;
78004;SDS011;67209;51.698;-0.292;2023-06-22T13:24:54;4.22;;;3.08;;
78004;SDS011;67209;51.698;-0.292;2023-06-22T13:27:20;3.47;;;2.63;;
78004;SDS011;67209;51.698;-0.292;2023-06-22T13:29:46;3.85;;;2.80;;
78004;SDS011;67209;51.698;-0.292;2023-06-22T13:32:12;6.53;;;2.63;;
78004;SDS011;67209;51.698;-0.292;2023-06-22T13:34:38;4.00;;;2.53;;
78004;SDS011;67209;51.698;-0.292;2023-06-22T13:37:04;4.40;;;3.10;;
78004;SDS011;67209;51.698;-0.292;2023-06-22T13:39:31;3.63;;;2.50;;
78004;SDS011;67209;51.698;-0.292;2023-06-22T13:41:57;4.43;;;2.60;;
78004;SDS011;67209;51.698;-0.292;2023-06-22T13:44:23;3.78;;;2.58;;
78004;SDS011;67209;51.698;-0.292;2023-06-22T13:46:53;3.03;;;2.42;;
78004;SDS011;67209;51.698;-0.292;2023-06-22T13:49:21;3.92;;;2.97;;
78004;SDS011;67209;51.698;-0.292;2023-06-22T13:51:47;4.97;;;2.97;;
78004;SDS011;67209;51.698;-0.292;2023-06-22T13:54:14;3.50;;;2.67;;
78004;SDS011;67209;51.698;-0.292;2023-06-22T13:56:40;4.57;;;3.08;;
78004;SDS011;67209;51.698;-0.292;2023-06-22T13:59:06;3.20;;;2.35;;
78004;SDS011;67209;51.698;-0.292;2023-06-22T14:01:34;3.83;;;2.60;;
78004;SDS011;67209;51.698;-0.292;2023-06-22T14:04:00;5.95;;;2.88;;
78004;SDS011;67209;51.698;-0.292;2023-06-22T14:06:27;3.13;;;2.45;;
78004;SDS011;67209;51.698;-0.292;2023-06-22T14:08:53;5.78;;;3.03;;
78004;SDS011;67209;51.698;-0.292;2023-06-22T14:11:19;5.28;;;2.85;;
78004;SDS011;67209;51.698;-0.292;2023-06-22T14:13:45;4.55;;;2.78;;
78004;SDS011;67209;51.698;-0.292;2023-06-22T14:16:11;3.60;;;2.50;;
78004;SDS011;67209;51.698;-0.292;2023-06-22T14:18:37;6.82;;;3.05;;
78004;SDS011;67209;51.698;-0.292;2023-06-22T14:21:03;5.03;;;2.58;;
78004;SDS011;67209;51.698;-0.292;2023-06-22T14:23:29;4.90;;;2.63;;
78004;SDS011;67209;51.698;-0.292;2023-06-22T14:25:55;2.85;;;2.47;;
78004;SDS011;67209;51.698;-0.292;2023-06-22T14:28:21;4.88;;;2.58;;
78004;SDS011;67209;51.698;-0.292;2023-06-22T14:30:47;3.45;;;2.50;;
78004;SDS011;67209;51.698;-0.292;2023-06-22T14:33:13;3.13;;;2.22;;
78004;SDS011;67209;51.698;-0.292;2023-06-22T14:35:39;4.43;;;2.50;;
78004;SDS011;67209;51.698;-0.292;2023-06-22T14:38:06;3.42;;;2.40;;